sensor_id;sensor_type;location;lat;lon;timestamp;pressure;altitude;pressure_sealevel;temperature;humidity
67740;BME280;54536;50.090;14.420;2023-06-26T00:01:02;99526.63;;;23.29;51.94
67740;BME280;54536;50.090;14.420;2023-06-26T00:03:48;99516.19;;;23.46;51.89
67740;BME280;54536;50.090;14.420;2023-06-26T00:06:14;99518.25;;;23.44;51.97
67740;BME280;54536;50.090;14.420;2023-06-26T00:08:40;99520.13;;;23.44;51.46
67740;BME280;54536;50.090;14.420;2023-06-26T00:11:07;99522.31;;;23.28;52.01
67740;BME280;54536;50.090;14.420;2023-06-26T00:13:33;99518.34;;;23.31;52.03
67740;BME280;54536;50.090;14.420;2023-06-26T00:16:00;99522.66;;;23.39;51.87
67740;BME280;54536;50.090;14.420;2023-06-26T00:18:29;99517.84;;;23.16;52.85
67740;BME280;54536;50.090;14.420;2023-06-26T00:20:56;99515.34;;;23.14;52.79
67740;BME280;54536;50.090;14.420;2023-06-26T00:23:22;99517.66;;;23.10;52.61
67740;BME280;54536;50.090;14.420;2023-06-26T00:25:48;99517.59;;;23.17;52.46
67740;BME280;54536;50.090;14.420;2023-06-26T00:28:14;99520.53;;;23.16;52.83
67740;BME280;54536;50.090;14.420;2023-06-26T00:30:40;99516.19;;;23.08;52.85
67740;BME280;54536;50.090;14.420;2023-06-26T00:33:06;99516.97;;;23.15;53.06
67740;BME280;54536;50.090;14.420;2023-06-26T00:35:33;99527.78;;;23.02;53.31
67740;BME280;54536;50.090;14.420;2023-06-26T00:44:43;99522.16;;;22.65;53.75
67740;BME280;54536;50.090;14.420;2023-06-26T00:47:14;99518.41;;;22.73;53.56
67740;BME280;54536;50.090;14.420;2023-06-26T00:49:41;99525.06;;;22.57;54.80
67740;BME280;54536;50.090;14.420;2023-06-26T00:52:08;99522.56;;;22.62;54.33
67740;BME280;54536;50.090;14.420;2023-06-26T00:54:35;99524.47;;;22.48;54.58
67740;BME280;54536;50.090;14.420;2023-06-26T00:57:01;99523.69;;;22.34;54.76
67740;BME280;54536;50.090;14.420;2023-06-26T00:59:28;99514.16;;;22.52;54.83
67740;BME280;54536;50.090;14.420;2023-06-26T01:01:54;99515.22;;;22.37;54.55
67740;BME280;54536;50.090;14.420;2023-06-26T01:04:21;99514.00;;;22.40;54.83
67740;BME280;54536;50.090;14.420;2023-06-26T01:06:49;99509.22;;;22.49;55.01
67740;BME280;54536;50.090;14.420;2023-06-26T01:09:19;99515.84;;;22.33;55.18
67740;BME280;54536;50.090;14.420;2023-06-26T01:11:47;99519.38;;;22.20;55.45
67740;BME280;54536;50.090;14.420;2023-06-26T01:14:13;99513.31;;;22.51;54.88
67740;BME280;54536;50.090;14.420;2023-06-26T01:16:41;99509.19;;;22.55;54.57
67740;BME280;54536;50.090;14.420;2023-06-26T01:19:25;99509.47;;;22.34;55.37
67740;BME280;54536;50.090;14.420;2023-06-26T01:22:00;99508.81;;;22.45;55.28
67740;BME280;54536;50.090;14.420;2023-06-26T01:24:35;99510.28;;;22.34;55.27
67740;BME280;54536;50.090;14.420;2023-06-26T01:27:05;99506.59;;;22.22;56.15
67740;BME280;54536;50.090;14.420;2023-06-26T01:29:33;99507.41;;;22.29;55.80
67740;BME280;54536;50.090;14.420;2023-06-26T01:32:00;99516.06;;;22.31;55.58
67740;BME280;54536;50.090;14.420;2023-06-26T01:34:27;99511.09;;;22.35;55.72
67740;BME280;54536;50.090;14.420;2023-06-26T01:36:53;99499.59;;;22.28;55.39
67740;BME280;54536;50.090;14.420;2023-06-26T01:39:19;99502.03;;;22.29;54.85
67740;BME280;54536;50.090;14.420;2023-06-26T01:41:46;99500.59;;;22.07;55.63
67740;BME280;54536;50.090;14.420;2023-06-26T01:44:44;99504.97;;;22.01;55.36
67740;BME280;54536;50.090;14.420;2023-06-26T01:47:16;99504.97;;;21.88;56.02
67740;BME280;54536;50.090;14.420;2023-06-26T01:50:17;99501.88;;;21.71;56.33
67740;BME280;54536;50.090;14.420;2023-06-26T01:53:02;99496.09;;;21.61;56.98
67740;BME280;54536;50.090;14.420;2023-06-26T01:55:46;99498.59;;;21.56;57.04
67740;BME280;54536;50.090;14.420;2023-06-26T01:58:14;99494.44;;;21.40;58.05
67740;BME280;54536;50.090;14.420;2023-06-26T02:00:43;99491.16;;;21.44;57.85
67740;BME280;54536;50.090;14.420;2023-06-26T02:03:09;99490.75;;;21.47;57.63
67740;BME280;54536;50.090;14.420;2023-06-26T02:05:35;99491.56;;;21.61;56.93
67740;BME280;54536;50.090;14.420;2023-06-26T02:08:01;99482.31;;;21.64;56.95
67740;BME280;54536;50.090;14.420;2023-06-26T02:10:28;99479.63;;;21.64;57.08
67740;BME280;54536;50.090;14.420;2023-06-26T02:12:55;99484.16;;;21.63;56.98
67740;BME280;54536;50.090;14.420;2023-06-26T02:15:21;99479.22;;;21.73;56.53
67740;BME280;54536;50.090;14.420;2023-06-26T02:17:48;99477.38;;;21.67;57.25
67740;BME280;54536;50.090;14.420;2023-06-26T02:20:14;99484.16;;;21.50;57.48
67740;BME280;54536;50.090;14.420;2023-06-26T02:22:44;99479.63;;;21.57;57.21
67740;BME280;54536;50.090;14.420;2023-06-26T02:25:10;99488.47;;;21.58;57.49
67740;BME280;54536;50.090;14.420;2023-06-26T02:27:38;99485.63;;;21.66;56.97
67740;BME280;54536;50.090;14.420;2023-06-26T02:30:05;99489.75;;;21.62;56.67
67740;BME280;54536;50.090;14.420;2023-06-26T02:32:32;99485.41;;;21.67;56.71
67740;BME280;54536;50.090;14.420;2023-06-26T02:34:58;99490.97;;;21.66;56.90
67740;BME280;54536;50.090;14.420;2023-06-26T02:37:24;99485.19;;;21.42;57.88
67740;BME280;54536;50.090;14.420;2023-06-26T02:39:50;99493.41;;;21.47;57.65
67740;BME280;54536;50.090;14.420;2023-06-26T02:42:17;99491.75;;;21.33;57.78
67740;BME280;54536;50.090;14.420;2023-06-26T02:44:43;99487.19;;;21.34;58.07
67740;BME280;54536;50.090;14.420;2023-06-26T02:47:09;99486.00;;;21.43;57.36
67740;BME280;54536;50.090;14.420;2023-06-26T02:49:35;99490.47;;;21.16;57.96
67740;BME280;54536;50.090;14.420;2023-06-26T02:52:02;99492.13;;;21.17;58.44
67740;BME280;54536;50.090;14.420;2023-06-26T02:54:28;99491.56;;;21.41;57.72
67740;BME280;54536;50.090;14.420;2023-06-26T02:56:54;99490.34;;;21.50;57.51
67740;BME280;54536;50.090;14.420;2023-06-26T02:59:20;99487.47;;;21.52;57.22
67740;BME280;54536;50.090;14.420;2023-06-26T03:01:46;99490.91;;;21.33;58.03
67740;BME280;54536;50.090;14.420;2023-06-26T03:04:13;99487.81;;;21.22;58.18
67740;BME280;54536;50.090;14.420;2023-06-26T03:06:41;99487.59;;;21.24;58.45
67740;BME280;54536;50.090;14.420;2023-06-26T03:09:07;99491.53;;;21.35;57.53
67740;BME280;54536;50.090;14.420;2023-06-26T03:11:34;99491.75;;;21.33;57.72
67740;BME280;54536;50.090;14.420;2023-06-26T03:14:00;99488.81;;;21.15;58.50
67740;BME280;54536;50.090;14.420;2023-06-26T03:16:26;99488.38;;;21.04;58.40
67740;BME280;54536;50.090;14.420;2023-06-26T03:18:52;99488.97;;;20.93;58.91
67740;BME280;54536;50.090;14.420;2023-06-26T03:21:19;99487.34;;;21.05;58.59
67740;BME280;54536;50.090;14.420;2023-06-26T03:23:45;99486.50;;;20.98;58.88
67740;BME280;54536;50.090;14.420;2023-06-26T03:26:11;99492.47;;;20.94;58.99
67740;BME280;54536;50.090;14.420;2023-06-26T03:28:40;99474.84;;;21.13;57.71
67740;BME280;54536;50.090;14.420;2023-06-26T03:31:08;99480.00;;;21.34;57.20
67740;BME280;54536;50.090;14.420;2023-06-26T03:33:34;99480.00;;;21.27;57.67
67740;BME280;54536;50.090;14.420;2023-06-26T03:36:00;99477.09;;;21.09;58.24
67740;BME280;54536;50.090;14.420;2023-06-26T03:38:26;99477.28;;;21.08;58.34
67740;BME280;54536;50.090;14.420;2023-06-26T03:40:53;99482.00;;;21.12;58.16
67740;BME280;54536;50.090;14.420;2023-06-26T03:43:19;99477.47;;;20.99;58.77
67740;BME280;54536;50.090;14.420;2023-06-26T03:45:45;99482.63;;;21.14;58.20
67740;BME280;54536;50.090;14.420;2023-06-26T03:48:12;99478.34;;;21.26;57.59
67740;BME280;54536;50.090;14.420;2023-06-26T03:50:38;99481.41;;;21.10;58.23
67740;BME280;54536;50.090;14.420;2023-06-26T03:53:04;99476.91;;;21.24;58.30
67740;BME280;54536;50.090;14.420;2023-06-26T03:55:30;99478.13;;;21.28;57.86
67740;BME280;54536;50.090;14.420;2023-06-26T03:57:57;99478.53;;;21.18;58.17
67740;BME280;54536;50.090;14.420;2023-06-26T04:00:23;99479.78;;;21.09;58.00
67740;BME280;54536;50.090;14.420;2023-06-26T04:02:49;99481.59;;;21.15;57.68
67740;BME280;54536;50.090;14.420;2023-06-26T04:05:17;99482.41;;;21.02;58.16
67740;BME280;54536;50.090;14.420;2023-06-26T04:07:49;99482.00;;;21.12;58.03
67740;BME280;54536;50.090;14.420;2023-06-26T04:10:17;99488.84;;;21.28;57.93
67740;BME280;54536;50.090;14.420;2023-06-26T04:12:44;99483.69;;;21.26;57.69
67740;BME280;54536;50.090;14.420;2023-06-26T04:15:10;99482.63;;;21.08;57.91
67740;BME280;54536;50.090;14.420;2023-06-26T04:17:36;99478.94;;;21.15;57.51
67740;BME280;54536;50.090;14.420;2023-06-26T04:20:03;99474.03;;;21.32;57.18
67740;BME280;54536;50.090;14.420;2023-06-26T04:22:33;99483.34;;;21.36;57.44
67740;BME280;54536;50.090;14.420;2023-06-26T04:25:03;99479.84;;;21.42;56.63
67740;BME280;54536;50.090;14.420;2023-06-26T04:27:29;99476.91;;;21.31;57.19
67740;BME280;54536;50.090;14.420;2023-06-26T04:29:56;99480.03;;;21.47;56.82
67740;BME280;54536;50.090;14.420;2023-06-26T04:32:22;99474.22;;;21.31;57.20
67740;BME280;54536;50.090;14.420;2023-06-26T04:34:49;99482.13;;;21.59;56.96
67740;BME280;54536;50.090;14.420;2023-06-26T04:37:15;99479.44;;;21.52;56.81
67740;BME280;54536;50.090;14.420;2023-06-26T04:39:45;99475.72;;;21.46;56.84
67740;BME280;54536;50.090;14.420;2023-06-26T04:42:11;99478.41;;;21.66;56.32
67740;BME280;54536;50.090;14.420;2023-06-26T04:44:38;99468.53;;;21.54;56.99
67740;BME280;54536;50.090;14.420;2023-06-26T04:47:07;99474.69;;;21.61;57.02
67740;BME280;54536;50.090;14.420;2023-06-26T04:49:34;99464.41;;;21.58;56.71
67740;BME280;54536;50.090;14.420;2023-06-26T04:52:00;99472.44;;;21.58;56.33
67740;BME280;54536;50.090;14.420;2023-06-26T04:54:27;99471.59;;;21.64;56.17
67740;BME280;54536;50.090;14.420;2023-06-26T04:56:54;99475.72;;;21.60;56.23
67740;BME280;54536;50.090;14.420;2023-06-26T04:59:20;99475.31;;;21.63;56.74
67740;BME280;54536;50.090;14.420;2023-06-26T05:01:47;99474.50;;;21.56;56.94
67740;BME280;54536;50.090;14.420;2023-06-26T05:04:16;99474.28;;;21.57;56.77
67740;BME280;54536;50.090;14.420;2023-06-26T05:06:43;99469.16;;;21.62;56.54
67740;BME280;54536;50.090;14.420;2023-06-26T05:09:10;99468.53;;;21.60;56.45
67740;BME280;54536;50.090;14.420;2023-06-26T05:11:37;99462.56;;;21.78;56.12
67740;BME280;54536;50.090;14.420;2023-06-26T05:14:03;99462.34;;;21.80;56.31
67740;BME280;54536;50.090;14.420;2023-06-26T05:16:33;99460.69;;;21.85;55.96
67740;BME280;54536;50.090;14.420;2023-06-26T05:19:00;99460.69;;;21.85;55.74
67740;BME280;54536;50.090;14.420;2023-06-26T05:21:28;99457.38;;;21.96;55.52
67740;BME280;54536;50.090;14.420;2023-06-26T05:23:56;99466.03;;;21.92;56.24
67740;BME280;54536;50.090;14.420;2023-06-26T05:26:24;99463.34;;;21.98;55.90
67740;BME280;54536;50.090;14.420;2023-06-26T05:28:51;99457.38;;;21.90;55.61
67740;BME280;54536;50.090;14.420;2023-06-26T05:31:17;99460.66;;;22.05;55.49
67740;BME280;54536;50.090;14.420;2023-06-26T05:33:44;99458.38;;;22.09;55.20
67740;BME280;54536;50.090;14.420;2023-06-26T05:36:12;99453.03;;;22.22;55.47
67740;BME280;54536;50.090;14.420;2023-06-26T05:38:40;99447.25;;;22.25;55.01
67740;BME280;54536;50.090;14.420;2023-06-26T05:41:07;99454.63;;;22.30;54.69
67740;BME280;54536;50.090;14.420;2023-06-26T05:43:33;99446.38;;;22.38;54.94
67740;BME280;54536;50.090;14.420;2023-06-26T05:46:00;99453.09;;;22.60;53.90
67740;BME280;54536;50.090;14.420;2023-06-26T05:48:27;99448.91;;;22.71;53.43
67740;BME280;54536;50.090;14.420;2023-06-26T05:50:53;99444.72;;;22.82;53.13
67740;BME280;54536;50.090;14.420;2023-06-26T05:53:20;99449.72;;;22.72;53.24
67740;BME280;54536;50.090;14.420;2023-06-26T05:55:46;99449.88;;;22.83;52.81
67740;BME280;54536;50.090;14.420;2023-06-26T05:58:14;99449.22;;;22.88;52.98
67740;BME280;54536;50.090;14.420;2023-06-26T06:00:41;99448.78;;;22.98;52.83
67740;BME280;54536;50.090;14.420;2023-06-26T06:03:09;99442.81;;;23.02;52.09
67740;BME280;54536;50.090;14.420;2023-06-26T06:05:36;99439.66;;;23.12;51.47
67740;BME280;54536;50.090;14.420;2023-06-26T06:08:02;99444.69;;;23.27;51.78
67740;BME280;54536;50.090;14.420;2023-06-26T06:10:29;99443.81;;;23.33;51.85
67740;BME280;54536;50.090;14.420;2023-06-26T06:12:55;99449.31;;;23.45;51.34
67740;BME280;54536;50.090;14.420;2023-06-26T06:15:21;99438.59;;;23.45;50.09
67740;BME280;54536;50.090;14.420;2023-06-26T06:17:47;99445.63;;;23.64;49.96
67740;BME280;54536;50.090;14.420;2023-06-26T06:20:13;99439.06;;;23.85;49.74
67740;BME280;54536;50.090;14.420;2023-06-26T06:22:40;99440.19;;;23.96;49.19
67740;BME280;54536;50.090;14.420;2023-06-26T06:25:06;99434.22;;;24.12;48.86
67740;BME280;54536;50.090;14.420;2023-06-26T06:27:33;99424.38;;;24.24;48.79
67740;BME280;54536;50.090;14.420;2023-06-26T06:29:59;99431.88;;;24.41;48.72
67740;BME280;54536;50.090;14.420;2023-06-26T06:32:25;99426.56;;;24.52;48.07
67740;BME280;54536;50.090;14.420;2023-06-26T06:34:51;99421.84;;;24.66;47.67
67740;BME280;54536;50.090;14.420;2023-06-26T06:37:18;99436.13;;;24.79;47.51
67740;BME280;54536;50.090;14.420;2023-06-26T06:39:44;99422.53;;;24.92;47.51
67740;BME280;54536;50.090;14.420;2023-06-26T06:42:10;99416.66;;;24.95;47.21
67740;BME280;54536;50.090;14.420;2023-06-26T06:44:36;99418.66;;;24.99;46.94
67740;BME280;54536;50.090;14.420;2023-06-26T06:47:03;99418.06;;;24.86;46.08
67740;BME280;54536;50.090;14.420;2023-06-26T06:49:29;99419.75;;;25.10;45.62
67740;BME280;54536;50.090;14.420;2023-06-26T06:51:55;99420.19;;;25.07;45.58
67740;BME280;54536;50.090;14.420;2023-06-26T06:54:22;99420.63;;;25.22;46.02
67740;BME280;54536;50.090;14.420;2023-06-26T06:56:48;99415.84;;;25.25;45.02
67740;BME280;54536;50.090;14.420;2023-06-26T06:59:14;99413.38;;;25.23;44.85
67740;BME280;54536;50.090;14.420;2023-06-26T07:01:40;99413.88;;;25.32;44.82
67740;BME280;54536;50.090;14.420;2023-06-26T07:04:07;99415.97;;;25.41;44.61
67740;BME280;54536;50.090;14.420;2023-06-26T07:06:33;99420.19;;;25.49;43.93
67740;BME280;54536;50.090;14.420;2023-06-26T07:09:00;99417.28;;;25.51;44.37
67740;BME280;54536;50.090;14.420;2023-06-26T07:11:27;99414.59;;;25.62;44.10
67740;BME280;54536;50.090;14.420;2023-06-26T07:13:53;99404.53;;;25.81;43.51
67740;BME280;54536;50.090;14.420;2023-06-26T07:16:19;99407.47;;;25.91;43.04
67740;BME280;54536;50.090;14.420;2023-06-26T07:18:46;99402.75;;;26.10;42.62
67740;BME280;54536;50.090;14.420;2023-06-26T07:21:12;99398.38;;;26.09;42.62
67740;BME280;54536;50.090;14.420;2023-06-26T07:23:38;99398.50;;;26.14;42.18
67740;BME280;54536;50.090;14.420;2023-06-26T07:26:05;99397.66;;;26.26;42.33
67740;BME280;54536;50.090;14.420;2023-06-26T07:28:31;99385.63;;;26.17;42.14
67740;BME280;54536;50.090;14.420;2023-06-26T07:30:57;99388.13;;;26.35;41.78
67740;BME280;54536;50.090;14.420;2023-06-26T07:33:24;99388.91;;;26.47;41.41
67740;BME280;54536;50.090;14.420;2023-06-26T07:35:50;99392.81;;;26.39;41.52
67740;BME280;54536;50.090;14.420;2023-06-26T07:38:16;99388.88;;;26.30;41.26
67740;BME280;54536;50.090;14.420;2023-06-26T07:40:43;99390.22;;;26.45;41.48
67740;BME280;54536;50.090;14.420;2023-06-26T07:43:09;99391.88;;;26.46;41.21
67740;BME280;54536;50.090;14.420;2023-06-26T07:45:35;99382.88;;;26.69;40.84
67740;BME280;54536;50.090;14.420;2023-06-26T07:48:01;99393.22;;;26.89;40.52
67740;BME280;54536;50.090;14.420;2023-06-26T07:50:28;99396.16;;;27.04;39.60
67740;BME280;54536;50.090;14.420;2023-06-26T07:52:54;99396.50;;;27.07;39.40
67740;BME280;54536;50.090;14.420;2023-06-26T07:55:20;99384.75;;;27.14;39.58
67740;BME280;54536;50.090;14.420;2023-06-26T07:57:47;99384.84;;;27.19;40.00
67740;BME280;54536;50.090;14.420;2023-06-26T08:00:14;99384.19;;;27.12;39.78
67740;BME280;54536;50.090;14.420;2023-06-26T08:02:40;99389.16;;;27.03;39.93
67740;BME280;54536;50.090;14.420;2023-06-26T08:05:07;99383.38;;;27.28;39.88
67740;BME280;54536;50.090;14.420;2023-06-26T08:07:33;99388.13;;;27.21;40.22
67740;BME280;54536;50.090;14.420;2023-06-26T08:10:00;99385.34;;;27.33;40.77
67740;BME280;54536;50.090;14.420;2023-06-26T08:12:26;99383.28;;;27.40;40.65
67740;BME280;54536;50.090;14.420;2023-06-26T08:14:52;99383.72;;;27.31;40.91
67740;BME280;54536;50.090;14.420;2023-06-26T08:17:18;99378.81;;;27.28;41.01
67740;BME280;54536;50.090;14.420;2023-06-26T08:19:45;99382.47;;;27.22;41.65
67740;BME280;54536;50.090;14.420;2023-06-26T08:22:11;99382.22;;;27.24;41.54
67740;BME280;54536;50.090;14.420;2023-06-26T08:24:37;99383.13;;;27.46;41.19
67740;BME280;54536;50.090;14.420;2023-06-26T08:27:04;99377.38;;;27.60;40.82
67740;BME280;54536;50.090;14.420;2023-06-26T08:29:30;99368.34;;;27.71;40.29
67740;BME280;54536;50.090;14.420;2023-06-26T08:31:56;99370.97;;;27.83;40.33
67740;BME280;54536;50.090;14.420;2023-06-26T08:34:23;99372.19;;;27.75;39.24
67740;BME280;54536;50.090;14.420;2023-06-26T08:36:49;99370.09;;;27.60;38.60
67740;BME280;54536;50.090;14.420;2023-06-26T08:39:15;99370.72;;;27.84;39.15
67740;BME280;54536;50.090;14.420;2023-06-26T08:41:41;99358.47;;;27.98;39.34
67740;BME280;54536;50.090;14.420;2023-06-26T08:44:08;99364.25;;;28.07;38.59
67740;BME280;54536;50.090;14.420;2023-06-26T08:46:35;99354.69;;;28.21;38.42
67740;BME280;54536;50.090;14.420;2023-06-26T08:49:34;99344.03;;;28.37;37.62
67740;BME280;54536;50.090;14.420;2023-06-26T08:52:03;99349.06;;;28.45;38.25
67740;BME280;54536;50.090;14.420;2023-06-26T08:54:39;99351.00;;;28.55;37.52
67740;BME280;54536;50.090;14.420;2023-06-26T08:57:07;99340.84;;;28.67;37.47
67740;BME280;54536;50.090;14.420;2023-06-26T08:59:34;99346.66;;;28.81;37.47
67740;BME280;54536;50.090;14.420;2023-06-26T09:02:00;99348.97;;;28.67;36.82
67740;BME280;54536;50.090;14.420;2023-06-26T09:04:32;99335.25;;;28.74;36.77
67740;BME280;54536;50.090;14.420;2023-06-26T09:06:58;99341.59;;;28.89;36.76
67740;BME280;54536;50.090;14.420;2023-06-26T09:09:24;99330.84;;;28.94;35.54
67740;BME280;54536;50.090;14.420;2023-06-26T09:11:50;99328.66;;;28.97;35.64
67740;BME280;54536;50.090;14.420;2023-06-26T09:14:17;99328.25;;;28.78;36.14
67740;BME280;54536;50.090;14.420;2023-06-26T09:16:43;99317.94;;;29.07;36.24
67740;BME280;54536;50.090;14.420;2023-06-26T09:19:11;99323.19;;;29.19;35.63
67740;BME280;54536;50.090;14.420;2023-06-26T09:21:42;99325.16;;;29.28;35.25
67740;BME280;54536;50.090;14.420;2023-06-26T09:24:10;99323.22;;;29.24;35.22
67740;BME280;54536;50.090;14.420;2023-06-26T09:26:40;99321.13;;;29.36;34.99
67740;BME280;54536;50.090;14.420;2023-06-26T09:29:08;99314.72;;;29.47;34.46
67740;BME280;54536;50.090;14.420;2023-06-26T09:31:37;99309.38;;;29.62;34.53
67740;BME280;54536;50.090;14.420;2023-06-26T09:34:04;99305.66;;;29.79;34.57
67740;BME280;54536;50.090;14.420;2023-06-26T09:36:32;99303.81;;;29.90;33.73
67740;BME280;54536;50.090;14.420;2023-06-26T09:39:00;99303.81;;;29.90;34.05
67740;BME280;54536;50.090;14.420;2023-06-26T09:41:27;99299.53;;;29.99;33.48
67740;BME280;54536;50.090;14.420;2023-06-26T09:43:53;99291.88;;;29.91;32.33
67740;BME280;54536;50.090;14.420;2023-06-26T09:46:27;99290.84;;;30.02;31.05
67740;BME280;54536;50.090;14.420;2023-06-26T09:49:03;99287.31;;;30.01;30.98
67740;BME280;54536;50.090;14.420;2023-06-26T09:51:34;99289.22;;;30.01;30.55
67740;BME280;54536;50.090;14.420;2023-06-26T09:54:03;99283.50;;;29.97;30.43
67740;BME280;54536;50.090;14.420;2023-06-26T09:56:30;99284.06;;;30.04;30.60
67740;BME280;54536;50.090;14.420;2023-06-26T09:59:00;99290.06;;;30.06;30.51
67740;BME280;54536;50.090;14.420;2023-06-26T10:01:31;99286.53;;;30.11;30.49
67740;BME280;54536;50.090;14.420;2023-06-26T10:03:57;99278.13;;;30.18;29.99
67740;BME280;54536;50.090;14.420;2023-06-26T10:06:54;99265.34;;;30.08;30.34
67740;BME280;54536;50.090;14.420;2023-06-26T10:09:23;99271.66;;;30.24;31.50
67740;BME280;54536;50.090;14.420;2023-06-26T10:11:56;99268.69;;;30.30;30.84
67740;BME280;54536;50.090;14.420;2023-06-26T10:14:27;99258.13;;;30.39;30.91
67740;BME280;54536;50.090;14.420;2023-06-26T10:16:59;99255.72;;;30.58;30.49
67740;BME280;54536;50.090;14.420;2023-06-26T10:19:29;99254.31;;;30.61;30.86
67740;BME280;54536;50.090;14.420;2023-06-26T10:21:59;99253.81;;;30.59;30.11
67740;BME280;54536;50.090;14.420;2023-06-26T10:24:31;99247.81;;;30.72;30.11
67740;BME280;54536;50.090;14.420;2023-06-26T10:27:11;99250.84;;;30.81;30.41
67740;BME280;54536;50.090;14.420;2023-06-26T10:29:44;99248.69;;;30.77;29.87
67740;BME280;54536;50.090;14.420;2023-06-26T10:32:14;99242.13;;;30.84;29.86
67740;BME280;54536;50.090;14.420;2023-06-26T10:34:43;99233.44;;;30.56;29.93
67740;BME280;54536;50.090;14.420;2023-06-26T10:37:09;99238.09;;;30.81;30.15
67740;BME280;54536;50.090;14.420;2023-06-26T10:39:52;99235.06;;;30.98;30.53
67740;BME280;54536;50.090;14.420;2023-06-26T10:42:36;99242.94;;;31.05;29.90
67740;BME280;54536;50.090;14.420;2023-06-26T10:45:18;99235.34;;;31.07;29.86
67740;BME280;54536;50.090;14.420;2023-06-26T10:47:52;99226.91;;;31.13;29.13
67740;BME280;54536;50.090;14.420;2023-06-26T10:50:24;99227.94;;;31.22;29.67
67740;BME280;54536;50.090;14.420;2023-06-26T10:56:03;99220.38;;;30.99;29.35
67740;BME280;54536;50.090;14.420;2023-06-26T10:58:42;99214.94;;;31.09;29.54
67740;BME280;54536;50.090;14.420;2023-06-26T11:03:43;99212.50;;;31.08;28.98
67740;BME280;54536;50.090;14.420;2023-06-26T11:06:11;99214.91;;;31.24;28.31
67740;BME280;54536;50.090;14.420;2023-06-26T11:08:54;99208.34;;;31.41;28.54
67740;BME280;54536;50.090;14.420;2023-06-26T11:14:23;99201.22;;;31.55;27.86
67740;BME280;54536;50.090;14.420;2023-06-26T11:16:51;99191.94;;;31.66;27.28
67740;BME280;54536;50.090;14.420;2023-06-26T11:19:18;99193.28;;;31.69;26.92
67740;BME280;54536;50.090;14.420;2023-06-26T11:21:45;99196.00;;;31.64;27.48
67740;BME280;54536;50.090;14.420;2023-06-26T11:24:13;99198.97;;;31.67;27.52
67740;BME280;54536;50.090;14.420;2023-06-26T11:26:41;99194.94;;;31.60;27.97
67740;BME280;54536;50.090;14.420;2023-06-26T11:29:08;99197.88;;;31.68;26.93
67740;BME280;54536;50.090;14.420;2023-06-26T11:31:37;99200.53;;;31.84;27.74
67740;BME280;54536;50.090;14.420;2023-06-26T11:34:12;99184.72;;;31.91;26.82
67740;BME280;54536;50.090;14.420;2023-06-26T11:36:41;99179.50;;;32.05;26.73
67740;BME280;54536;50.090;14.420;2023-06-26T11:39:08;99182.13;;;32.15;27.27
67740;BME280;54536;50.090;14.420;2023-06-26T11:41:36;99188.88;;;32.23;26.80
67740;BME280;54536;50.090;14.420;2023-06-26T11:44:05;99182.56;;;32.27;25.89
67740;BME280;54536;50.090;14.420;2023-06-26T11:46:33;99178.53;;;32.20;25.73
67740;BME280;54536;50.090;14.420;2023-06-26T11:49:02;99169.28;;;32.21;25.32
67740;BME280;54536;50.090;14.420;2023-06-26T11:51:29;99178.66;;;32.38;25.20
67740;BME280;54536;50.090;14.420;2023-06-26T11:53:56;99175.91;;;32.44;25.50
67740;BME280;54536;50.090;14.420;2023-06-26T11:56:22;99176.47;;;32.75;25.80
67740;BME280;54536;50.090;14.420;2023-06-26T11:59:04;99173.41;;;32.52;25.18
67740;BME280;54536;50.090;14.420;2023-06-26T12:01:37;99169.41;;;33.46;24.25
67740;BME280;54536;50.090;14.420;2023-06-26T12:04:06;99160.44;;;33.64;24.05
67740;BME280;54536;50.090;14.420;2023-06-26T12:06:38;99164.44;;;33.72;24.18
67740;BME280;54536;50.090;14.420;2023-06-26T12:09:08;99163.84;;;34.45;22.67
67740;BME280;54536;50.090;14.420;2023-06-26T12:11:38;99153.16;;;35.73;21.20
67740;BME280;54536;50.090;14.420;2023-06-26T12:14:07;99150.72;;;36.53;20.04
67740;BME280;54536;50.090;14.420;2023-06-26T12:16:35;99148.47;;;37.43;19.70
67740;BME280;54536;50.090;14.420;2023-06-26T12:19:07;99148.66;;;37.47;19.77
67740;BME280;54536;50.090;14.420;2023-06-26T12:24:07;99144.69;;;38.70;18.10
67740;BME280;54536;50.090;14.420;2023-06-26T12:26:35;99137.03;;;38.93;18.08
67740;BME280;54536;50.090;14.420;2023-06-26T12:29:08;99134.69;;;39.33;17.13
67740;BME280;54536;50.090;14.420;2023-06-26T12:31:35;99125.94;;;39.82;17.23
67740;BME280;54536;50.090;14.420;2023-06-26T12:34:09;99124.09;;;40.07;17.40
67740;BME280;54536;50.090;14.420;2023-06-26T12:37:04;99118.41;;;40.69;16.55
67740;BME280;54536;50.090;14.420;2023-06-26T12:39:46;99121.38;;;40.64;16.31
67740;BME280;54536;50.090;14.420;2023-06-26T12:42:21;99108.94;;;40.58;16.18
67740;BME280;54536;50.090;14.420;2023-06-26T12:44:48;99113.34;;;40.84;16.95
67740;BME280;54536;50.090;14.420;2023-06-26T12:47:16;99113.22;;;40.80;15.76
67740;BME280;54536;50.090;14.420;2023-06-26T12:49:44;99108.63;;;40.84;15.65
67740;BME280;54536;50.090;14.420;2023-06-26T12:52:14;99098.38;;;40.15;16.26
67740;BME280;54536;50.090;14.420;2023-06-26T12:54:42;99099.59;;;40.38;15.74
67740;BME280;54536;50.090;14.420;2023-06-26T12:57:09;99097.38;;;40.77;16.56
67740;BME280;54536;50.090;14.420;2023-06-26T12:59:37;99096.47;;;40.73;15.42
67740;BME280;54536;50.090;14.420;2023-06-26T13:02:05;99094.16;;;40.87;16.11
67740;BME280;54536;50.090;14.420;2023-06-26T13:04:31;99100.03;;;40.98;15.40
67740;BME280;54536;50.090;14.420;2023-06-26T13:06:58;99093.13;;;40.92;15.43
67740;BME280;54536;50.090;14.420;2023-06-26T13:09:25;99087.69;;;41.45;15.35
67740;BME280;54536;50.090;14.420;2023-06-26T13:11:52;99079.09;;;41.22;15.63
67740;BME280;54536;50.090;14.420;2023-06-26T13:14:18;99078.63;;;41.07;15.29